createdAt,value
2022-08-17T00:01:17.371Z,22.90
2022-08-17T00:04:11.638Z,23.00
2022-08-17T00:09:45.686Z,22.90
2022-08-17T00:22:00.014Z,22.90
2022-08-17T00:33:16.367Z,22.70
2022-08-17T00:38:59.071Z,22.60
2022-08-17T00:50:11.041Z,22.50
2022-08-17T00:52:58.508Z,22.40
2022-08-17T00:55:47.221Z,22.40
2022-08-17T01:04:13.752Z,22.40
2022-08-17T01:07:04.344Z,22.30
2022-08-17T01:12:39.742Z,22.40
2022-08-17T01:18:14.911Z,22.30
2022-08-17T01:21:07.837Z,22.40
2022-08-17T01:23:56.937Z,22.40
2022-08-17T01:29:32.501Z,22.30
2022-08-17T01:35:08.213Z,21.60
2022-08-17T01:40:50.413Z,21.50
2022-08-17T01:43:46.810Z,21.70
2022-08-17T01:46:36.689Z,21.80
2022-08-17T01:52:12.978Z,21.80
2022-08-17T01:55:00.462Z,21.50
2022-08-17T01:57:48.789Z,21.50
2022-08-17T02:15:27.360Z,21.90
2022-08-17T02:23:51.002Z,22.00
2022-08-17T02:26:38.045Z,22.00
2022-08-17T02:32:21.531Z,22.00
2022-08-17T02:38:07.473Z,21.90
2022-08-17T02:49:16.815Z,21.60
2022-08-17T02:52:05.040Z,21.60
2022-08-17T02:57:39.160Z,21.80
2022-08-17T03:00:29.188Z,21.80
2022-08-17T03:03:19.440Z,21.80
2022-08-17T03:06:08.850Z,21.70
2022-08-17T03:20:07.071Z,21.60
2022-08-17T03:23:01.878Z,21.50
2022-08-17T03:39:50.193Z,21.60
2022-08-17T03:42:39.064Z,21.40
2022-08-17T03:45:40.765Z,21.10
2022-08-17T03:57:44.082Z,21.20
2022-08-17T04:03:18.686Z,21.20
2022-08-17T04:11:41.293Z,21.30
2022-08-17T04:14:31.119Z,21.30
2022-08-17T04:22:59.319Z,20.80
2022-08-17T04:25:49.013Z,20.50
2022-08-17T04:31:24.393Z,20.40
2022-08-17T04:34:11.815Z,20.50
2022-08-17T04:40:05.705Z,20.80
2022-08-17T04:43:01.380Z,20.70
2022-08-17T04:45:55.545Z,20.80
2022-08-17T04:48:46.728Z,20.80
2022-08-17T04:51:36.343Z,21.00
2022-08-17T05:02:49.596Z,20.70
2022-08-17T05:05:43.071Z,20.60
2022-08-17T05:11:18.890Z,21.00
2022-08-17T05:22:29.679Z,20.90
2022-08-17T05:28:05.625Z,20.90
2022-08-17T05:33:44.521Z,20.90
2022-08-17T05:39:32.877Z,20.80
2022-08-17T05:42:20.085Z,20.80
2022-08-17T05:45:08.156Z,20.70
2022-08-17T05:50:50.560Z,20.70
2022-08-17T05:53:46.469Z,20.80
2022-08-17T05:56:52.225Z,20.90
2022-08-17T05:59:57.632Z,21.00
2022-08-17T06:02:59.131Z,21.00
2022-08-17T06:06:00.012Z,21.00
2022-08-17T06:08:51.980Z,21.10
2022-08-17T06:11:47.996Z,21.10
2022-08-17T06:14:52.505Z,21.10
2022-08-17T06:20:31.178Z,21.00
2022-08-17T06:23:31.317Z,21.10
2022-08-17T06:26:25.825Z,21.20
2022-08-17T06:29:37.237Z,21.20
2022-08-17T06:35:14.331Z,21.50
2022-08-17T06:38:09.173Z,21.50
2022-08-17T06:41:17.327Z,21.60
2022-08-17T06:44:49.847Z,21.60
2022-08-17T06:47:29.723Z,21.80
2022-08-17T06:50:21.112Z,22.00
2022-08-17T06:53:20.431Z,22.20
2022-08-17T06:56:09.916Z,22.50
2022-08-17T06:58:58.651Z,22.60
2022-08-17T07:01:49.935Z,22.70
2022-08-17T07:04:38.234Z,22.70
2022-08-17T07:10:37.007Z,23.00
2022-08-17T07:13:32.151Z,23.30
2022-08-17T07:16:23.376Z,23.40
2022-08-17T07:22:10.619Z,23.50
2022-08-17T07:24:59.603Z,23.50
2022-08-17T07:27:51.137Z,23.60
2022-08-17T07:30:47.277Z,23.60
2022-08-17T07:33:39.259Z,23.60
2022-08-17T07:36:33.581Z,23.80
2022-08-17T07:39:27.617Z,23.80
2022-08-17T07:45:24.180Z,24.00
2022-08-17T07:48:21.326Z,24.10
2022-08-17T07:51:28.167Z,24.20
2022-08-17T07:54:24.496Z,24.30
2022-08-17T07:57:36.645Z,24.40
2022-08-17T08:03:27.199Z,24.70
2022-08-17T08:06:21.732Z,24.90
2022-08-17T08:11:57.127Z,25.10
2022-08-17T08:14:56.118Z,25.30
2022-08-17T08:17:54.203Z,25.30
2022-08-17T08:20:51.919Z,25.40
2022-08-17T08:23:47.352Z,25.50
2022-08-17T08:26:42.237Z,25.60
2022-08-17T08:29:40.496Z,25.60
2022-08-17T08:32:40.557Z,25.70
2022-08-17T08:35:33.725Z,25.70
2022-08-17T08:38:31.517Z,25.50
2022-08-17T08:41:34.005Z,25.40
2022-08-17T08:45:00.688Z,25.40
2022-08-17T08:48:05.684Z,25.30
2022-08-17T08:51:00.830Z,25.30
2022-08-17T08:53:56.436Z,25.30
2022-08-17T08:57:19.742Z,25.30
2022-08-17T09:00:12.780Z,25.30
2022-08-17T09:03:20.890Z,25.30
2022-08-17T09:06:32.623Z,25.20
2022-08-17T09:09:35.679Z,25.20
2022-08-17T09:12:29.895Z,25.10
2022-08-17T09:15:22.908Z,25.00
2022-08-17T09:19:03.215Z,25.00
2022-08-17T09:21:27.762Z,25.00
2022-08-17T09:24:26.025Z,25.00
2022-08-17T09:27:15.859Z,25.10
2022-08-17T09:30:10.157Z,25.20
2022-08-17T09:33:03.312Z,25.10
2022-08-17T09:35:56.542Z,25.00
2022-08-17T09:38:53.703Z,25.00
2022-08-17T09:41:49.159Z,25.00
2022-08-17T09:44:41.053Z,25.00
2022-08-17T09:47:34.457Z,25.00
2022-08-17T09:51:03.336Z,25.10
2022-08-17T09:53:36.610Z,25.00
2022-08-17T09:56:42.295Z,24.90
2022-08-17T09:59:41.879Z,24.90
2022-08-17T10:03:02.997Z,24.90
2022-08-17T10:05:57.192Z,25.00
2022-08-17T10:08:52.068Z,24.90
2022-08-17T10:12:07.149Z,24.80
2022-08-17T10:15:08.197Z,24.90
2022-08-17T10:18:33.194Z,25.00
2022-08-17T10:21:39.132Z,25.10
2022-08-17T10:25:01.871Z,25.10
2022-08-17T10:27:58.444Z,25.10
2022-08-17T10:30:51.558Z,25.20
2022-08-17T10:33:50.961Z,25.30
2022-08-17T10:36:48.942Z,25.50
2022-08-17T10:39:52.131Z,25.50
2022-08-17T10:42:50.170Z,25.60
2022-08-17T10:45:46.090Z,25.90
2022-08-17T10:48:37.218Z,25.90
2022-08-17T10:51:37.910Z,25.80
2022-08-17T10:54:41.443Z,25.60
2022-08-17T10:57:38.105Z,25.50
2022-08-17T11:01:02.157Z,25.50
2022-08-17T11:03:54.072Z,25.40
2022-08-17T11:06:50.659Z,25.20
2022-08-17T11:09:55.654Z,25.10
2022-08-17T11:12:51.479Z,24.80
2022-08-17T11:15:49.536Z,24.70
2022-08-17T11:19:08.543Z,24.40
2022-08-17T11:22:41.207Z,24.30
2022-08-17T11:25:39.470Z,24.20
2022-08-17T11:28:28.107Z,24.00
2022-08-17T11:31:38.269Z,23.80
2022-08-17T11:34:28.886Z,23.70
2022-08-17T11:37:36.521Z,23.80
2022-08-17T11:40:47.376Z,23.80
2022-08-17T11:44:01.878Z,23.70
2022-08-17T11:47:23.897Z,23.70
2022-08-17T11:50:51.571Z,23.60
2022-08-17T11:54:31.695Z,23.70
2022-08-17T11:58:01.597Z,23.80
2022-08-17T12:00:56.682Z,24.00
2022-08-17T12:03:53.853Z,24.10
2022-08-17T12:06:49.673Z,24.10
2022-08-17T12:09:41.821Z,24.20
2022-08-17T12:12:35.743Z,24.20
2022-08-17T12:15:32.514Z,24.30
2022-08-17T12:18:24.530Z,24.30
2022-08-17T12:21:34.289Z,24.50
2022-08-17T12:24:46.489Z,24.70
2022-08-17T12:28:04.206Z,24.70
2022-08-17T12:30:51.909Z,25.00
2022-08-17T12:33:45.163Z,25.00
2022-08-17T12:36:33.701Z,25.00
2022-08-17T12:39:24.989Z,25.30
2022-08-17T12:42:24.527Z,25.50
2022-08-17T12:45:26.131Z,25.60
2022-08-17T12:48:23.189Z,25.60
2022-08-17T12:56:47.594Z,25.80
2022-08-17T13:02:32.436Z,26.10
2022-08-17T13:05:25.881Z,26.40
2022-08-17T13:08:16.940Z,27.10
2022-08-17T13:11:05.863Z,28.30
2022-08-17T13:13:55.951Z,28.90
2022-08-17T13:16:50.250Z,29.80
2022-08-17T13:19:49.238Z,30.70
2022-08-17T13:22:37.630Z,31.60
2022-08-17T13:25:25.457Z,31.90
2022-08-17T13:28:30.717Z,31.80
2022-08-17T13:31:32.960Z,32.40
2022-08-17T13:35:07.742Z,32.40
2022-08-17T13:38:01.275Z,32.60
2022-08-17T13:40:52.725Z,33.00
2022-08-17T13:43:45.583Z,33.20
2022-08-17T13:46:33.893Z,32.60
2022-08-17T13:49:22.278Z,31.70
2022-08-17T13:52:19.538Z,30.80
2022-08-17T13:55:20.592Z,29.90
2022-08-17T14:00:56.271Z,29.70
2022-08-17T14:06:52.525Z,29.10
2022-08-17T14:09:51.080Z,29.00
2022-08-17T14:12:41.439Z,29.10
2022-08-17T14:18:56.074Z,29.50
2022-08-17T14:21:46.332Z,29.60
2022-08-17T14:24:35.314Z,29.70
2022-08-17T14:27:22.602Z,29.60
2022-08-17T14:30:11.939Z,29.30
2022-08-17T14:35:47.186Z,29.40
2022-08-17T14:47:01.461Z,28.90
2022-08-17T14:49:49.099Z,28.90
2022-08-17T14:55:24.160Z,28.90
2022-08-17T15:00:58.656Z,29.00
2022-08-17T15:03:47.398Z,28.90
2022-08-17T15:12:09.524Z,28.90
2022-08-17T15:14:57.039Z,28.90
2022-08-17T15:20:35.565Z,29.00
2022-08-17T15:23:25.153Z,28.90
2022-08-17T15:26:12.691Z,28.90
2022-08-17T15:34:33.734Z,28.50
2022-08-17T15:37:22.306Z,28.40
2022-08-17T15:40:11.243Z,28.30
2022-08-17T15:45:58.746Z,28.30
2022-08-17T15:48:49.091Z,28.30
2022-08-17T15:51:37.669Z,28.40
2022-08-17T15:54:26.147Z,28.30
2022-08-17T15:57:21.381Z,28.40
2022-08-17T16:00:10.157Z,28.40
2022-08-17T16:06:08.458Z,28.30
2022-08-17T16:08:59.568Z,28.30
2022-08-17T16:11:52.794Z,28.30
2022-08-17T16:23:19.918Z,28.10
2022-08-17T16:28:56.680Z,28.10
2022-08-17T16:37:18.230Z,28.10
2022-08-17T16:40:07.068Z,28.00
2022-08-17T16:42:55.442Z,28.00
2022-08-17T16:45:51.801Z,28.00
2022-08-17T16:59:53.598Z,27.70
2022-08-17T17:02:43.514Z,27.60
2022-08-17T17:05:42.278Z,27.60
2022-08-17T17:08:34.710Z,27.50
2022-08-17T17:11:27.065Z,27.40
2022-08-17T17:14:18.199Z,27.40
2022-08-17T17:17:07.173Z,27.30
2022-08-17T17:20:03.914Z,27.30
2022-08-17T17:23:00.778Z,27.20
2022-08-17T17:26:00.319Z,27.00
2022-08-17T17:29:03.337Z,27.00
2022-08-17T17:31:57.510Z,27.00
2022-08-17T17:34:50.999Z,27.00
2022-08-17T17:37:41.690Z,26.90
2022-08-17T17:40:40.043Z,26.90
2022-08-17T17:43:39.016Z,26.80
2022-08-17T17:46:33.397Z,26.80
2022-08-17T17:52:19.307Z,26.60
2022-08-17T17:55:24.689Z,26.60
2022-08-17T17:58:23.297Z,26.40
2022-08-17T18:01:23.452Z,26.40
2022-08-17T18:04:21.922Z,26.30
2022-08-17T18:07:24.658Z,26.20
2022-08-17T18:10:30.340Z,26.10
2022-08-17T18:13:28.349Z,26.10
2022-08-17T18:16:15.700Z,26.10
2022-08-17T18:21:54.600Z,26.10
2022-08-17T18:24:44.424Z,26.00
2022-08-17T18:27:35.984Z,25.90
2022-08-17T18:30:28.937Z,25.90
2022-08-17T18:33:26.729Z,25.80
2022-08-17T18:36:26.468Z,25.70
2022-08-17T18:39:16.889Z,25.70
2022-08-17T18:42:06.136Z,25.60
2022-08-17T18:44:55.589Z,25.50
2022-08-17T18:47:55.219Z,25.50
2022-08-17T18:50:42.898Z,25.30
2022-08-17T18:53:35.762Z,25.50
2022-08-17T18:56:27.608Z,25.40
2022-08-17T18:59:27.833Z,25.40
2022-08-17T19:02:44.628Z,25.40
2022-08-17T19:05:36.626Z,25.30
2022-08-17T19:08:25.706Z,25.30
2022-08-17T19:11:20.153Z,25.20
2022-08-17T19:14:11.483Z,25.10
2022-08-17T19:17:02.806Z,25.10
2022-08-17T19:19:57.545Z,25.20
2022-08-17T19:23:06.415Z,25.10
2022-08-17T19:25:55.362Z,25.00
2022-08-17T19:28:48.673Z,25.00
2022-08-17T19:34:33.292Z,25.10
2022-08-17T19:37:33.162Z,25.00
2022-08-17T19:40:51.570Z,24.90
2022-08-17T19:43:58.989Z,25.00
2022-08-17T19:46:56.251Z,25.00
2022-08-17T19:50:01.813Z,25.00
2022-08-17T19:52:58.077Z,24.90
2022-08-17T19:55:54.405Z,24.90
2022-08-17T19:58:53.515Z,24.70
2022-08-17T20:01:45.816Z,24.70
2022-08-17T20:04:40.620Z,24.70
2022-08-17T20:07:31.245Z,24.60
2022-08-17T20:10:29.750Z,24.70
2022-08-17T20:13:33.534Z,24.60
2022-08-17T20:16:21.350Z,24.60
2022-08-17T20:19:13.645Z,24.60
2022-08-17T20:22:07.190Z,24.60
2022-08-17T20:25:00.251Z,24.50
2022-08-17T20:27:54.630Z,24.50
2022-08-17T20:33:39.024Z,24.40
2022-08-17T20:39:31.879Z,24.30
2022-08-17T20:42:33.603Z,24.30
2022-08-17T20:45:53.813Z,24.30
2022-08-17T20:48:44.889Z,24.20
2022-08-17T20:51:38.523Z,24.20
2022-08-17T20:54:44.512Z,24.20
2022-08-17T20:57:48.469Z,24.30
2022-08-17T21:00:47.097Z,24.20
2022-08-17T21:03:57.348Z,24.20
2022-08-17T21:07:18.160Z,24.10
2022-08-17T21:10:14.900Z,24.10
2022-08-17T21:13:23.538Z,24.10
2022-08-17T21:16:33.672Z,24.10
2022-08-17T21:19:37.607Z,24.10
2022-08-17T21:22:48.016Z,24.20
2022-08-17T21:26:17.291Z,24.20
2022-08-17T21:29:31.753Z,24.30
2022-08-17T21:32:29.452Z,24.30
2022-08-17T21:35:30.371Z,24.30
2022-08-17T21:38:20.712Z,24.30
2022-08-17T21:44:05.067Z,24.20
2022-08-17T21:46:54.148Z,24.20
2022-08-17T21:52:31.037Z,24.10
2022-08-17T21:55:28.114Z,24.00
2022-08-17T21:58:29.825Z,24.10
2022-08-17T22:01:23.349Z,24.00
2022-08-17T22:04:21.454Z,24.00
2022-08-17T22:07:11.306Z,24.10
2022-08-17T22:09:59.506Z,24.10
2022-08-17T22:13:05.670Z,24.00
2022-08-17T22:16:28.489Z,23.90
2022-08-17T22:30:59.242Z,23.30
2022-08-17T22:39:41.622Z,22.50
2022-08-17T22:45:17.471Z,22.20
2022-08-17T22:51:03.031Z,22.10
2022-08-17T22:54:19.710Z,22.10
2022-08-17T23:00:33.137Z,22.10
2022-08-17T23:03:23.346Z,22.20
2022-08-17T23:14:45.731Z,21.90
2022-08-17T23:17:37.382Z,21.80
2022-08-17T23:23:13.891Z,21.70
2022-08-17T23:28:48.402Z,21.70
2022-08-17T23:34:25.555Z,21.80
2022-08-17T23:37:13.124Z,21.90
2022-08-17T23:51:26.007Z,21.70
2022-08-17T23:54:16.756Z,21.70
